Time,TemperatureF,DewpointF,PressureIn,WindDirection,WindDirectionDegrees,WindSpeedMPH,WindSpeedGustMPH,Humidity,HourlyPrecipIn,Conditions,Clouds,dailyrainin,SolarRadiationWatts/m^2,SoftwareType,DateUTC
2013-05-27 00:01:00,50.0,49.0,-100.00,NE,40,0.0,2.0,96,0.00,,,0.05,1.000000,,2013-05-27 07:01:00,
2013-05-27 00:10:00,50.0,49.0,-100.00,East,98,0.0,2.0,97,0.00,,,0.05,1.000000,,2013-05-27 07:10:00,
2013-05-27 00:32:00,50.0,49.0,-100.00,East,98,0.0,2.0,97,0.00,,,0.05,1.000000,,2013-05-27 07:32:00,
2013-05-27 00:42:00,50.0,49.0,-100.00,East,98,0.0,2.0,97,0.00,,,0.05,1.000000,,2013-05-27 07:42:00,
2013-05-27 00:52:00,50.0,49.0,-100.00,East,98,0.0,2.0,97,0.00,,,0.05,1.000000,,2013-05-27 07:52:00,
2013-05-27 01:02:00,50.0,49.0,-100.00,East,98,0.0,2.0,97,0.00,,,0.05,1.000000,,2013-05-27 08:02:00,
2013-05-27 01:10:00,49.0,48.0,-100.00,ESE,118,0.0,2.0,97,0.00,,,0.05,1.000000,,2013-05-27 08:10:00,
2013-05-27 01:33:00,49.0,48.0,-100.00,ESE,118,0.0,2.0,97,0.00,,,0.05,1.000000,,2013-05-27 08:33:00,
2013-05-27 01:42:00,49.0,48.0,-100.00,ESE,118,0.0,2.0,97,0.00,,,0.05,1.000000,,2013-05-27 08:42:00,
2013-05-27 01:52:00,49.0,48.0,-100.00,ESE,118,0.0,2.0,97,0.00,,,0.05,1.000000,,2013-05-27 08:52:00,
2013-05-27 02:02:00,49.0,48.0,-100.00,ESE,118,0.0,2.0,97,0.00,,,0.05,1.000000,,2013-05-27 09:02:00,
2013-05-27 02:10:00,47.0,46.0,-100.00,ESE,115,0.0,3.0,98,0.00,,,0.05,1.000000,,2013-05-27 09:10:00,
2013-05-27 02:33:00,47.0,46.0,-100.00,ESE,115,0.0,3.0,98,0.00,,,0.05,1.000000,,2013-05-27 09:33:00,
2013-05-27 02:42:00,47.0,46.0,-100.00,ESE,115,0.0,3.0,98,0.00,,,0.05,1.000000,,2013-05-27 09:42:00,
2013-05-27 02:53:00,47.0,46.0,-100.00,ESE,115,0.0,3.0,98,0.00,,,0.05,1.000000,,2013-05-27 09:53:00,
2013-05-27 03:02:00,47.0,46.0,-100.00,ESE,115,0.0,3.0,98,0.00,,,0.05,1.000000,,2013-05-27 10:02:00,
2013-05-27 03:10:00,45.0,44.0,-100.00,SE,145,0.0,2.0,98,0.00,,,0.05,1.000000,,2013-05-27 10:10:00,
2013-05-27 03:32:00,45.0,44.0,-100.00,SE,145,0.0,2.0,98,0.00,,,0.05,1.000000,,2013-05-27 10:32:00,
2013-05-27 03:42:00,45.0,44.0,-100.00,SE,145,0.0,2.0,98,0.00,,,0.05,1.000000,,2013-05-27 10:42:00,
2013-05-27 03:52:00,45.0,44.0,-100.00,SE,145,0.0,2.0,98,0.00,,,0.05,1.000000,,2013-05-27 10:52:00,
2013-05-27 04:02:00,45.0,44.0,-100.00,SE,145,0.0,2.0,98,0.00,,,0.05,1.000000,,2013-05-27 11:02:00,
2013-05-27 04:10:00,44.0,43.0,-100.00,East,99,1.0,2.0,98,0.00,,,0.05,1.000000,,2013-05-27 11:10:00,
2013-05-27 04:32:00,44.0,43.0,-100.00,East,99,1.0,2.0,98,0.00,,,0.05,1.000000,,2013-05-27 11:32:00,
2013-05-27 04:42:00,44.0,43.0,-100.00,East,99,1.0,2.0,98,0.00,,,0.05,1.000000,,2013-05-27 11:42:00,
2013-05-27 04:52:00,44.0,43.0,-100.00,East,99,1.0,2.0,98,0.00,,,0.05,1.000000,,2013-05-27 11:52:00,
2013-05-27 05:01:00,44.0,43.0,-100.00,East,99,1.0,2.0,98,0.00,,,0.05,1.000000,,2013-05-27 12:01:00,
2013-05-27 05:10:00,45.0,44.0,-100.00,ENE,60,0.0,3.0,98,0.00,,,0.05,1.000000,,2013-05-27 12:10:00,
2013-05-27 05:32:00,45.0,44.0,-100.00,ENE,60,0.0,3.0,98,0.00,,,0.05,1.000000,,2013-05-27 12:32:00,
2013-05-27 05:42:00,45.0,44.0,-100.00,ENE,60,0.0,3.0,98,0.00,,,0.05,1.000000,,2013-05-27 12:42:00,
2013-05-27 05:52:00,45.0,44.0,-100.00,ENE,60,0.0,3.0,98,0.00,,,0.05,1.000000,,2013-05-27 12:52:00,
2013-05-27 06:01:00,45.0,44.0,-100.00,ENE,60,0.0,3.0,98,0.00,,,0.05,1.000000,,2013-05-27 13:01:00,
2013-05-27 06:10:00,46.0,45.0,-100.00,NE,55,1.0,3.0,96,0.00,,,0.04,5.000000,,2013-05-27 13:10:00,
2013-05-27 06:32:00,46.0,45.0,-100.00,NE,55,1.0,3.0,96,0.00,,,0.04,5.000000,,2013-05-27 13:32:00,
2013-05-27 06:42:00,46.0,45.0,-100.00,NE,55,1.0,3.0,96,0.00,,,0.04,5.000000,,2013-05-27 13:42:00,
2013-05-27 06:52:00,46.0,45.0,-100.00,NE,55,1.0,3.0,96,0.00,,,0.04,5.000000,,2013-05-27 13:52:00,
2013-05-27 07:01:00,46.0,45.0,-100.00,NE,55,1.0,3.0,96,0.00,,,0.04,5.000000,,2013-05-27 14:01:00,
2013-05-27 07:10:00,49.0,46.0,-100.00,NNE,24,2.0,5.0,91,0.00,,,0.03,40.000000,,2013-05-27 14:10:00,
2013-05-27 07:32:00,49.0,46.0,-100.00,NNE,24,2.0,5.0,91,0.00,,,0.03,40.000000,,2013-05-27 14:32:00,
2013-05-27 07:42:00,49.0,46.0,-100.00,NNE,24,2.0,5.0,91,0.00,,,0.03,40.000000,,2013-05-27 14:42:00,
2013-05-27 07:52:00,49.0,46.0,-100.00,NNE,24,2.0,5.0,91,0.00,,,0.03,40.000000,,2013-05-27 14:52:00,
2013-05-27 08:01:00,49.0,46.0,-100.00,NNE,24,2.0,5.0,91,0.00,,,0.03,40.000000,,2013-05-27 15:01:00,
2013-05-27 08:10:00,49.0,46.0,-100.00,North,11,2.0,5.0,91,0.01,,,0.02,61.000000,,2013-05-27 15:10:00,
2013-05-27 08:33:00,49.0,46.0,-100.00,North,11,2.0,5.0,91,0.01,,,0.02,61.000000,,2013-05-27 15:33:00,
2013-05-27 08:43:00,49.0,46.0,-100.00,North,11,2.0,5.0,91,0.01,,,0.02,61.000000,,2013-05-27 15:43:00,
2013-05-27 08:53:00,49.0,46.0,-100.00,North,11,2.0,5.0,91,0.01,,,0.02,61.000000,,2013-05-27 15:53:00,
2013-05-27 09:02:00,49.0,46.0,-100.00,North,11,2.0,5.0,91,0.01,,,0.02,61.000000,,2013-05-27 16:02:00,
2013-05-27 09:10:00,51.0,48.0,-100.00,North,3,3.0,8.0,89,0.01,,,0.03,108.000000,,2013-05-27 16:10:00,
2013-05-27 09:33:00,51.0,48.0,-100.00,North,3,3.0,8.0,89,0.01,,,0.03,108.000000,,2013-05-27 16:33:00,
2013-05-27 09:42:00,51.0,48.0,-100.00,North,3,3.0,8.0,89,0.01,,,0.03,108.000000,,2013-05-27 16:42:00,
2013-05-27 09:52:00,51.0,48.0,-100.00,North,3,3.0,8.0,89,0.01,,,0.03,108.000000,,2013-05-27 16:52:00,
2013-05-27 10:02:00,51.0,48.0,-100.00,North,3,3.0,8.0,89,0.01,,,0.03,108.000000,,2013-05-27 17:02:00,
2013-05-27 10:10:00,52.0,48.0,-100.00,NE,43,3.0,10.0,85,0.02,,,0.05,152.000000,,2013-05-27 17:10:00,
2013-05-27 10:32:00,52.0,48.0,-100.00,NE,43,3.0,10.0,85,0.02,,,0.05,152.000000,,2013-05-27 17:32:00,
2013-05-27 10:43:00,52.0,48.0,-100.00,NE,43,3.0,10.0,85,0.02,,,0.05,152.000000,,2013-05-27 17:43:00,
2013-05-27 10:52:00,52.0,48.0,-100.00,NE,43,3.0,10.0,85,0.02,,,0.05,152.000000,,2013-05-27 17:52:00,
2013-05-27 11:02:00,52.0,48.0,-100.00,NE,43,3.0,10.0,85,0.02,,,0.05,152.000000,,2013-05-27 18:02:00,
2013-05-27 11:10:00,53.0,48.0,-100.00,North,8,2.0,9.0,83,0.02,,,0.07,211.000000,,2013-05-27 18:10:00,
2013-05-27 11:32:00,53.0,48.0,-100.00,North,8,2.0,9.0,83,0.02,,,0.07,211.000000,,2013-05-27 18:32:00,
2013-05-27 11:42:00,53.0,48.0,-100.00,North,8,2.0,9.0,83,0.02,,,0.07,211.000000,,2013-05-27 18:42:00,
2013-05-27 11:52:00,53.0,48.0,-100.00,North,8,2.0,9.0,83,0.02,,,0.07,211.000000,,2013-05-27 18:52:00,
2013-05-27 12:01:00,53.0,48.0,-100.00,North,8,2.0,9.0,83,0.02,,,0.07,211.000000,,2013-05-27 19:01:00,
2013-05-27 12:10:00,53.0,48.0,-100.00,NE,34,3.0,10.0,83,0.01,,,0.08,221.000000,,2013-05-27 19:10:00,
2013-05-27 12:32:00,53.0,48.0,-100.00,NE,34,3.0,10.0,83,0.01,,,0.08,221.000000,,2013-05-27 19:32:00,
2013-05-27 12:42:00,53.0,48.0,-100.00,NE,34,3.0,10.0,83,0.01,,,0.08,221.000000,,2013-05-27 19:42:00,
2013-05-27 12:52:00,53.0,48.0,-100.00,NE,34,3.0,10.0,83,0.01,,,0.08,221.000000,,2013-05-27 19:52:00,
2013-05-27 13:01:00,53.0,48.0,-100.00,NE,34,3.0,10.0,83,0.01,,,0.08,221.000000,,2013-05-27 20:01:00,
2013-05-27 13:10:00,55.0,48.0,-100.00,SE,130,3.0,11.0,78,0.00,,,0.08,235.000000,,2013-05-27 20:10:00,
2013-05-27 13:32:00,55.0,48.0,-100.00,SE,130,3.0,11.0,78,0.00,,,0.08,235.000000,,2013-05-27 20:32:00,
2013-05-27 13:42:00,55.0,48.0,-100.00,SE,130,3.0,11.0,78,0.00,,,0.08,235.000000,,2013-05-27 20:42:00,
2013-05-27 13:52:00,55.0,48.0,-100.00,SE,130,3.0,11.0,78,0.00,,,0.08,235.000000,,2013-05-27 20:52:00,
2013-05-27 14:01:00,55.0,48.0,-100.00,SE,130,3.0,11.0,78,0.00,,,0.08,235.000000,,2013-05-27 21:01:00,
2013-05-27 14:10:00,55.0,48.0,-100.00,ENE,75,2.0,14.0,77,0.00,,,0.07,187.000000,,2013-05-27 21:10:00,
2013-05-27 14:33:00,55.0,48.0,-100.00,ENE,75,2.0,14.0,77,0.00,,,0.07,187.000000,,2013-05-27 21:33:00,
2013-05-27 14:43:00,55.0,48.0,-100.00,ENE,75,2.0,14.0,77,0.00,,,0.07,187.000000,,2013-05-27 21:43:00,
2013-05-27 14:53:00,55.0,48.0,-100.00,ENE,75,2.0,14.0,77,0.00,,,0.07,187.000000,,2013-05-27 21:53:00,
2013-05-27 15:02:00,55.0,48.0,-100.00,ENE,75,2.0,14.0,77,0.00,,,0.07,187.000000,,2013-05-27 22:02:00,
2013-05-27 15:10:00,55.0,47.0,-100.00,NE,35,2.0,10.0,74,0.00,,,0.07,172.000000,,2013-05-27 22:10:00,
2013-05-27 15:33:00,55.0,47.0,-100.00,NE,35,2.0,10.0,74,0.00,,,0.07,172.000000,,2013-05-27 22:33:00,
2013-05-27 15:42:00,55.0,47.0,-100.00,NE,35,2.0,10.0,74,0.00,,,0.07,172.000000,,2013-05-27 22:42:00,
2013-05-27 15:53:00,55.0,47.0,-100.00,NE,35,2.0,10.0,74,0.00,,,0.07,172.000000,,2013-05-27 22:53:00,
2013-05-27 16:02:00,55.0,47.0,-100.00,NE,35,2.0,10.0,74,0.00,,,0.07,172.000000,,2013-05-27 23:02:00,
2013-05-27 16:10:00,58.0,48.0,-100.00,South,177,2.0,11.0,70,0.00,,,0.07,293.000000,,2013-05-27 23:10:00,
2013-05-27 16:32:00,58.0,48.0,-100.00,South,177,2.0,11.0,70,0.00,,,0.07,293.000000,,2013-05-27 23:32:00,
2013-05-27 16:42:00,58.0,48.0,-100.00,South,177,2.0,11.0,70,0.00,,,0.07,293.000000,,2013-05-27 23:42:00,
2013-05-27 16:52:00,58.0,48.0,-100.00,South,177,2.0,11.0,70,0.00,,,0.07,293.000000,,2013-05-27 23:52:00,
2013-05-27 17:01:00,58.0,48.0,-100.00,South,177,2.0,11.0,70,0.00,,,0.07,293.000000,,2013-05-28 00:01:00,
2013-05-27 18:10:00,54.0,52.0,-100.00,NNE,14,1.0,5.0,94,-99.99,,,0.11,78.000000,,2013-05-28 01:10:00,
2013-05-27 18:32:00,54.0,52.0,-100.00,NNE,14,1.0,5.0,94,-99.99,,,0.11,78.000000,,2013-05-28 01:32:00,
2013-05-27 18:42:00,54.0,52.0,-100.00,NNE,14,1.0,5.0,94,-99.99,,,0.11,78.000000,,2013-05-28 01:42:00,
2013-05-27 18:52:00,54.0,52.0,-100.00,NNE,14,1.0,5.0,94,-99.99,,,0.11,78.000000,,2013-05-28 01:52:00,
2013-05-27 19:02:00,54.0,52.0,-100.00,NNE,14,1.0,5.0,94,-99.99,,,0.11,78.000000,,2013-05-28 02:02:00,
2013-05-27 19:10:00,55.0,52.0,-100.00,South,188,3.0,8.0,88,0.03,,,0.14,44.000000,,2013-05-28 02:10:00,
2013-05-27 19:32:00,55.0,52.0,-100.00,South,188,3.0,8.0,88,0.03,,,0.14,44.000000,,2013-05-28 02:32:00,
2013-05-27 19:42:00,55.0,52.0,-100.00,South,188,3.0,8.0,88,0.03,,,0.14,44.000000,,2013-05-28 02:42:00,
2013-05-27 19:52:00,55.0,52.0,-100.00,South,188,3.0,8.0,88,0.03,,,0.14,44.000000,,2013-05-28 02:52:00,
2013-05-27 20:01:00,55.0,52.0,-100.00,South,188,3.0,8.0,88,0.03,,,0.14,44.000000,,2013-05-28 03:01:00,
2013-05-27 20:10:00,52.0,51.0,-100.00,WNW,292,0.0,4.0,97,0.00,,,0.14,50.000000,,2013-05-28 03:10:00,
2013-05-27 20:33:00,52.0,51.0,-100.00,WNW,292,0.0,4.0,97,0.00,,,0.14,50.000000,,2013-05-28 03:33:00,
2013-05-27 20:43:00,52.0,51.0,-100.00,WNW,292,0.0,4.0,97,0.00,,,0.14,50.000000,,2013-05-28 03:43:00,
2013-05-27 20:53:00,52.0,51.0,-100.00,WNW,292,0.0,4.0,97,0.00,,,0.14,50.000000,,2013-05-28 03:53:00,
2013-05-27 21:02:00,52.0,51.0,-100.00,WNW,292,0.0,4.0,97,0.00,,,0.14,50.000000,,2013-05-28 04:02:00,
2013-05-27 21:10:00,52.0,51.0,-100.00,SSE,163,0.0,3.0,98,0.04,,,0.18,2.000000,,2013-05-28 04:10:00,
2013-05-27 21:33:00,52.0,51.0,-100.00,SSE,163,0.0,3.0,98,0.04,,,0.18,2.000000,,2013-05-28 04:33:00,
2013-05-27 21:43:00,52.0,51.0,-100.00,SSE,163,0.0,3.0,98,0.04,,,0.18,2.000000,,2013-05-28 04:43:00,
2013-05-27 21:52:00,52.0,51.0,-100.00,SSE,163,0.0,3.0,98,0.04,,,0.18,2.000000,,2013-05-28 04:52:00,
2013-05-27 22:02:00,52.0,51.0,-100.00,SSE,163,0.0,3.0,98,0.04,,,0.18,2.000000,,2013-05-28 05:02:00,
2013-05-27 22:10:00,52.0,51.0,-100.00,SW,215,1.0,3.0,98,0.03,,,0.21,1.000000,,2013-05-28 05:10:00,
2013-05-27 22:33:00,52.0,51.0,-100.00,SW,215,1.0,3.0,98,0.03,,,0.21,1.000000,,2013-05-28 05:33:00,
2013-05-27 22:42:00,52.0,51.0,-100.00,SW,215,1.0,3.0,98,0.03,,,0.21,1.000000,,2013-05-28 05:42:00,
2013-05-27 22:52:00,52.0,51.0,-100.00,SW,215,1.0,3.0,98,0.03,,,0.21,1.000000,,2013-05-28 05:52:00,
2013-05-27 23:02:00,52.0,51.0,-100.00,SW,215,1.0,3.0,98,0.03,,,0.21,1.000000,,2013-05-28 06:02:00,
2013-05-27 23:10:00,51.0,51.0,-100.00,SSW,192,0.0,3.0,99,0.01,,,0.22,1.000000,,2013-05-28 06:10:00,
2013-05-27 23:32:00,51.0,51.0,-100.00,SSW,192,0.0,3.0,99,0.01,,,0.22,1.000000,,2013-05-28 06:32:00,
2013-05-27 23:42:00,51.0,51.0,-100.00,SSW,192,0.0,3.0,99,0.01,,,0.22,1.000000,,2013-05-28 06:42:00,
2013-05-27 23:52:00,51.0,51.0,-100.00,SSW,192,0.0,3.0,99,0.01,,,0.22,1.000000,,2013-05-28 06:52:00,